sensor_id;sensor_type;location;lat;lon;timestamp;temperature;humidity
41060;DHT22;26811;53.160;8.202;2023-04-25T00:04:45;6.90;99.90
41060;DHT22;26811;53.160;8.202;2023-04-25T00:09:46;6.70;99.90
41060;DHT22;26811;53.160;8.202;2023-04-25T00:14:47;6.60;99.90
41060;DHT22;26811;53.160;8.202;2023-04-25T00:19:50;6.50;99.90
41060;DHT22;26811;53.160;8.202;2023-04-25T00:24:50;6.40;99.90
41060;DHT22;26811;53.160;8.202;2023-04-25T00:29:53;6.30;99.90
41060;DHT22;26811;53.160;8.202;2023-04-25T00:34:54;6.30;99.90
41060;DHT22;26811;53.160;8.202;2023-04-25T00:39:57;6.20;99.90
41060;DHT22;26811;53.160;8.202;2023-04-25T00:44:59;6.10;99.90
41060;DHT22;26811;53.160;8.202;2023-04-25T00:49:59;6.10;99.90
41060;DHT22;26811;53.160;8.202;2023-04-25T00:55:00;6.10;99.90
41060;DHT22;26811;53.160;8.202;2023-04-25T01:00:05;6.10;99.90
41060;DHT22;26811;53.160;8.202;2023-04-25T01:05:06;6.00;99.90
41060;DHT22;26811;53.160;8.202;2023-04-25T01:10:07;5.90;99.90
41060;DHT22;26811;53.160;8.202;2023-04-25T01:15:08;5.90;99.90
41060;DHT22;26811;53.160;8.202;2023-04-25T01:20:11;5.90;99.90
41060;DHT22;26811;53.160;8.202;2023-04-25T01:25:11;5.90;99.90
41060;DHT22;26811;53.160;8.202;2023-04-25T01:30:13;5.90;99.90
41060;DHT22;26811;53.160;8.202;2023-04-25T01:35:14;5.90;99.90
41060;DHT22;26811;53.160;8.202;2023-04-25T01:40:14;5.90;99.90
41060;DHT22;26811;53.160;8.202;2023-04-25T01:45:15;5.90;99.90
41060;DHT22;26811;53.160;8.202;2023-04-25T01:50:18;5.90;99.90
41060;DHT22;26811;53.160;8.202;2023-04-25T01:55:18;5.90;99.90
41060;DHT22;26811;53.160;8.202;2023-04-25T02:00:19;5.80;99.90
41060;DHT22;26811;53.160;8.202;2023-04-25T02:05:20;5.80;99.90
41060;DHT22;26811;53.160;8.202;2023-04-25T02:10:21;5.80;99.90
41060;DHT22;26811;53.160;8.202;2023-04-25T02:15:21;5.70;99.90
41060;DHT22;26811;53.160;8.202;2023-04-25T02:20:22;5.70;99.90
41060;DHT22;26811;53.160;8.202;2023-04-25T02:25:23;5.70;99.90
41060;DHT22;26811;53.160;8.202;2023-04-25T02:30:24;5.70;99.90
41060;DHT22;26811;53.160;8.202;2023-04-25T02:35:24;5.70;99.90
41060;DHT22;26811;53.160;8.202;2023-04-25T02:40:25;5.70;99.90
41060;DHT22;26811;53.160;8.202;2023-04-25T02:45:25;5.70;99.90
41060;DHT22;26811;53.160;8.202;2023-04-25T02:50:26;5.60;99.90
41060;DHT22;26811;53.160;8.202;2023-04-25T02:55:26;5.50;99.90
41060;DHT22;26811;53.160;8.202;2023-04-25T03:00:27;5.50;99.90
41060;DHT22;26811;53.160;8.202;2023-04-25T03:05:28;5.50;99.90
41060;DHT22;26811;53.160;8.202;2023-04-25T03:10:28;5.40;99.90
41060;DHT22;26811;53.160;8.202;2023-04-25T03:15:29;5.40;99.90
41060;DHT22;26811;53.160;8.202;2023-04-25T03:20:29;5.40;99.90
41060;DHT22;26811;53.160;8.202;2023-04-25T03:25:30;5.30;99.90
41060;DHT22;26811;53.160;8.202;2023-04-25T03:30:31;5.30;99.90
41060;DHT22;26811;53.160;8.202;2023-04-25T03:35:31;5.20;99.90
41060;DHT22;26811;53.160;8.202;2023-04-25T03:40:32;5.20;99.90
41060;DHT22;26811;53.160;8.202;2023-04-25T03:45:32;5.10;99.90
41060;DHT22;26811;53.160;8.202;2023-04-25T03:50:33;5.20;99.90
41060;DHT22;26811;53.160;8.202;2023-04-25T03:55:33;5.10;99.90
41060;DHT22;26811;53.160;8.202;2023-04-25T04:00:35;5.10;99.90
41060;DHT22;26811;53.160;8.202;2023-04-25T04:05:35;5.10;99.90
41060;DHT22;26811;53.160;8.202;2023-04-25T04:10:37;5.10;99.90
41060;DHT22;26811;53.160;8.202;2023-04-25T04:15:37;5.00;99.90
41060;DHT22;26811;53.160;8.202;2023-04-25T04:20:38;5.00;99.90
41060;DHT22;26811;53.160;8.202;2023-04-25T04:25:39;5.00;99.90
41060;DHT22;26811;53.160;8.202;2023-04-25T04:30:40;5.10;99.90
41060;DHT22;26811;53.160;8.202;2023-04-25T04:35:41;5.10;99.90
41060;DHT22;26811;53.160;8.202;2023-04-25T04:40:42;5.10;99.90
41060;DHT22;26811;53.160;8.202;2023-04-25T04:45:43;5.20;99.90
41060;DHT22;26811;53.160;8.202;2023-04-25T04:50:44;5.30;99.90
41060;DHT22;26811;53.160;8.202;2023-04-25T04:55:45;5.30;99.90
41060;DHT22;26811;53.160;8.202;2023-04-25T05:00:46;5.30;99.90
41060;DHT22;26811;53.160;8.202;2023-04-25T05:05:47;5.20;99.90
41060;DHT22;26811;53.160;8.202;2023-04-25T05:10:47;5.10;99.90
41060;DHT22;26811;53.160;8.202;2023-04-25T05:15:48;5.30;99.90
41060;DHT22;26811;53.160;8.202;2023-04-25T05:20:48;5.40;99.90
41060;DHT22;26811;53.160;8.202;2023-04-25T05:25:49;5.50;99.90
41060;DHT22;26811;53.160;8.202;2023-04-25T05:30:50;5.60;99.90
41060;DHT22;26811;53.160;8.202;2023-04-25T05:35:50;5.80;99.90
41060;DHT22;26811;53.160;8.202;2023-04-25T05:40:51;5.90;99.90
41060;DHT22;26811;53.160;8.202;2023-04-25T05:45:51;6.20;99.90
41060;DHT22;26811;53.160;8.202;2023-04-25T05:50:52;7.00;99.90
41060;DHT22;26811;53.160;8.202;2023-04-25T05:55:52;8.00;99.90
41060;DHT22;26811;53.160;8.202;2023-04-25T06:00:53;8.30;99.90
41060;DHT22;26811;53.160;8.202;2023-04-25T06:05:53;8.00;99.90
41060;DHT22;26811;53.160;8.202;2023-04-25T06:10:54;7.90;99.90
41060;DHT22;26811;53.160;8.202;2023-04-25T06:15:54;8.00;99.90
41060;DHT22;26811;53.160;8.202;2023-04-25T06:20:55;9.30;99.90
41060;DHT22;26811;53.160;8.202;2023-04-25T06:25:55;10.20;99.90
41060;DHT22;26811;53.160;8.202;2023-04-25T06:30:56;10.80;99.90
41060;DHT22;26811;53.160;8.202;2023-04-25T06:35:56;11.40;99.90
41060;DHT22;26811;53.160;8.202;2023-04-25T06:40:57;11.10;99.90
41060;DHT22;26811;53.160;8.202;2023-04-25T06:45:57;11.40;99.90
41060;DHT22;26811;53.160;8.202;2023-04-25T06:50:58;12.40;99.90
41060;DHT22;26811;53.160;8.202;2023-04-25T06:55:58;13.60;99.90
41060;DHT22;26811;53.160;8.202;2023-04-25T07:00:59;14.00;99.90
41060;DHT22;26811;53.160;8.202;2023-04-25T07:06:00;14.30;99.90
41060;DHT22;26811;53.160;8.202;2023-04-25T07:11:00;15.30;99.20
41060;DHT22;26811;53.160;8.202;2023-04-25T07:16:01;16.50;94.20
41060;DHT22;26811;53.160;8.202;2023-04-25T07:21:02;14.80;95.50
41060;DHT22;26811;53.160;8.202;2023-04-25T07:26:02;15.60;93.20
41060;DHT22;26811;53.160;8.202;2023-04-25T07:31:03;14.30;94.40
41060;DHT22;26811;53.160;8.202;2023-04-25T07:36:04;12.50;98.10
41060;DHT22;26811;53.160;8.202;2023-04-25T07:41:04;10.90;98.20
41060;DHT22;26811;53.160;8.202;2023-04-25T07:46:05;9.90;99.90
41060;DHT22;26811;53.160;8.202;2023-04-25T07:51:06;9.40;99.90
41060;DHT22;26811;53.160;8.202;2023-04-25T07:56:07;8.60;99.90
41060;DHT22;26811;53.160;8.202;2023-04-25T08:01:08;8.00;99.90
41060;DHT22;26811;53.160;8.202;2023-04-25T08:06:08;8.00;99.90
41060;DHT22;26811;53.160;8.202;2023-04-25T08:11:09;8.70;99.90
41060;DHT22;26811;53.160;8.202;2023-04-25T08:16:10;9.40;99.90
41060;DHT22;26811;53.160;8.202;2023-04-25T08:21:11;10.00;99.90
41060;DHT22;26811;53.160;8.202;2023-04-25T08:26:12;11.40;99.90
41060;DHT22;26811;53.160;8.202;2023-04-25T08:31:13;14.20;99.90
41060;DHT22;26811;53.160;8.202;2023-04-25T08:36:13;14.80;96.90
41060;DHT22;26811;53.160;8.202;2023-04-25T08:41:15;13.10;96.20
41060;DHT22;26811;53.160;8.202;2023-04-25T08:46:18;11.60;99.90
41060;DHT22;26811;53.160;8.202;2023-04-25T08:51:22;9.50;99.90
41060;DHT22;26811;53.160;8.202;2023-04-25T08:56:26;8.70;99.90
41060;DHT22;26811;53.160;8.202;2023-04-25T09:01:27;8.90;99.90
41060;DHT22;26811;53.160;8.202;2023-04-25T09:06:29;10.70;99.90
41060;DHT22;26811;53.160;8.202;2023-04-25T09:11:31;12.50;99.90
41060;DHT22;26811;53.160;8.202;2023-04-25T09:16:31;14.20;99.90
41060;DHT22;26811;53.160;8.202;2023-04-25T09:21:32;14.40;99.90
41060;DHT22;26811;53.160;8.202;2023-04-25T09:26:34;15.30;99.90
41060;DHT22;26811;53.160;8.202;2023-04-25T09:31:35;15.10;95.70
41060;DHT22;26811;53.160;8.202;2023-04-25T09:36:35;12.80;99.70
41060;DHT22;26811;53.160;8.202;2023-04-25T09:41:37;10.40;99.90
41060;DHT22;26811;53.160;8.202;2023-04-25T09:46:38;9.10;99.90
41060;DHT22;26811;53.160;8.202;2023-04-25T09:51:38;8.40;99.90
41060;DHT22;26811;53.160;8.202;2023-04-25T09:56:39;8.30;99.90
41060;DHT22;26811;53.160;8.202;2023-04-25T10:01:40;8.40;99.90
41060;DHT22;26811;53.160;8.202;2023-04-25T10:06:42;8.90;99.90
41060;DHT22;26811;53.160;8.202;2023-04-25T10:11:46;9.90;99.90
41060;DHT22;26811;53.160;8.202;2023-04-25T10:16:48;10.60;99.90
41060;DHT22;26811;53.160;8.202;2023-04-25T10:22:34;11.30;99.90
41060;DHT22;26811;53.160;8.202;2023-04-25T10:27:15;11.80;99.90
41060;DHT22;26811;53.160;8.202;2023-04-25T10:32:16;12.60;99.90
41060;DHT22;26811;53.160;8.202;2023-04-25T10:37:16;12.90;99.90
41060;DHT22;26811;53.160;8.202;2023-04-25T10:42:19;13.40;99.90
41060;DHT22;26811;53.160;8.202;2023-04-25T10:47:38;12.80;99.90
41060;DHT22;26811;53.160;8.202;2023-04-25T10:52:43;11.60;99.90
41060;DHT22;26811;53.160;8.202;2023-04-25T10:57:45;11.50;99.90
41060;DHT22;26811;53.160;8.202;2023-04-25T11:02:59;11.50;99.90
41060;DHT22;26811;53.160;8.202;2023-04-25T11:08:00;12.20;99.90
41060;DHT22;26811;53.160;8.202;2023-04-25T11:13:01;13.00;99.90
41060;DHT22;26811;53.160;8.202;2023-04-25T11:18:01;13.80;99.90
41060;DHT22;26811;53.160;8.202;2023-04-25T11:23:04;13.90;99.90
41060;DHT22;26811;53.160;8.202;2023-04-25T11:28:04;13.30;97.40
41060;DHT22;26811;53.160;8.202;2023-04-25T11:33:05;13.20;98.50
41060;DHT22;26811;53.160;8.202;2023-04-25T11:38:06;11.90;99.90
41060;DHT22;26811;53.160;8.202;2023-04-25T11:43:06;10.90;99.90
41060;DHT22;26811;53.160;8.202;2023-04-25T11:48:07;10.90;99.90
41060;DHT22;26811;53.160;8.202;2023-04-25T11:53:08;11.40;99.90
41060;DHT22;26811;53.160;8.202;2023-04-25T11:58:08;11.60;99.90
41060;DHT22;26811;53.160;8.202;2023-04-25T12:03:09;12.30;99.90
41060;DHT22;26811;53.160;8.202;2023-04-25T12:08:13;12.70;99.90
41060;DHT22;26811;53.160;8.202;2023-04-25T12:13:32;12.50;99.40
41060;DHT22;26811;53.160;8.202;2023-04-25T12:18:35;12.10;96.40
41060;DHT22;26811;53.160;8.202;2023-04-25T12:23:38;12.50;96.00
41060;DHT22;26811;53.160;8.202;2023-04-25T12:28:38;12.40;96.30
41060;DHT22;26811;53.160;8.202;2023-04-25T12:33:39;12.40;93.20
41060;DHT22;26811;53.160;8.202;2023-04-25T12:38:41;12.10;93.20
41060;DHT22;26811;53.160;8.202;2023-04-25T12:43:42;11.90;94.10
41060;DHT22;26811;53.160;8.202;2023-04-25T12:48:43;11.90;95.50
41060;DHT22;26811;53.160;8.202;2023-04-25T12:53:43;12.10;92.90
41060;DHT22;26811;53.160;8.202;2023-04-25T12:58:44;12.30;89.10
41060;DHT22;26811;53.160;8.202;2023-04-25T13:03:44;11.70;91.00
41060;DHT22;26811;53.160;8.202;2023-04-25T13:08:45;10.80;92.20
41060;DHT22;26811;53.160;8.202;2023-04-25T13:13:45;10.40;95.50
41060;DHT22;26811;53.160;8.202;2023-04-25T13:18:46;10.70;95.50
41060;DHT22;26811;53.160;8.202;2023-04-25T13:23:47;10.70;95.80
41060;DHT22;26811;53.160;8.202;2023-04-25T13:28:47;10.90;94.90
41060;DHT22;26811;53.160;8.202;2023-04-25T13:33:48;11.30;94.00
41060;DHT22;26811;53.160;8.202;2023-04-25T13:38:48;11.90;95.90
41060;DHT22;26811;53.160;8.202;2023-04-25T13:43:49;12.50;93.70
41060;DHT22;26811;53.160;8.202;2023-04-25T13:48:51;12.30;95.30
41060;DHT22;26811;53.160;8.202;2023-04-25T13:53:51;12.20;97.60
41060;DHT22;26811;53.160;8.202;2023-04-25T13:58:52;13.00;96.50
41060;DHT22;26811;53.160;8.202;2023-04-25T14:03:52;13.50;92.30
41060;DHT22;26811;53.160;8.202;2023-04-25T14:08:54;13.10;92.90
41060;DHT22;26811;53.160;8.202;2023-04-25T14:13:54;12.90;92.80
41060;DHT22;26811;53.160;8.202;2023-04-25T14:18:55;12.80;94.00
41060;DHT22;26811;53.160;8.202;2023-04-25T14:23:56;13.00;94.30
41060;DHT22;26811;53.160;8.202;2023-04-25T14:28:56;12.80;95.60
41060;DHT22;26811;53.160;8.202;2023-04-25T14:33:57;12.60;94.30
41060;DHT22;26811;53.160;8.202;2023-04-25T14:38:58;11.80;93.30
41060;DHT22;26811;53.160;8.202;2023-04-25T14:43:59;11.80;94.90
41060;DHT22;26811;53.160;8.202;2023-04-25T14:49:00;12.00;94.70
41060;DHT22;26811;53.160;8.202;2023-04-25T14:54:01;11.20;96.20
41060;DHT22;26811;53.160;8.202;2023-04-25T14:59:02;11.20;99.90
41060;DHT22;26811;53.160;8.202;2023-04-25T15:04:02;11.30;99.90
41060;DHT22;26811;53.160;8.202;2023-04-25T15:09:03;11.60;99.80
41060;DHT22;26811;53.160;8.202;2023-04-25T15:14:04;12.10;96.20
41060;DHT22;26811;53.160;8.202;2023-04-25T15:19:05;11.90;93.20
41060;DHT22;26811;53.160;8.202;2023-04-25T15:24:06;11.80;91.40
41060;DHT22;26811;53.160;8.202;2023-04-25T15:29:07;11.50;94.20
41060;DHT22;26811;53.160;8.202;2023-04-25T15:34:08;11.40;93.90
41060;DHT22;26811;53.160;8.202;2023-04-25T15:39:09;11.10;94.90
41060;DHT22;26811;53.160;8.202;2023-04-25T15:44:10;10.90;95.10
41060;DHT22;26811;53.160;8.202;2023-04-25T15:49:10;10.80;95.60
41060;DHT22;26811;53.160;8.202;2023-04-25T15:54:11;10.70;96.60
41060;DHT22;26811;53.160;8.202;2023-04-25T15:59:12;10.50;98.60
41060;DHT22;26811;53.160;8.202;2023-04-25T16:04:13;10.20;99.90
41060;DHT22;26811;53.160;8.202;2023-04-25T16:09:15;9.90;99.90
41060;DHT22;26811;53.160;8.202;2023-04-25T16:14:16;9.40;99.90
41060;DHT22;26811;53.160;8.202;2023-04-25T16:19:17;9.10;99.90
41060;DHT22;26811;53.160;8.202;2023-04-25T16:24:17;9.40;99.90
41060;DHT22;26811;53.160;8.202;2023-04-25T16:29:18;9.70;99.90
41060;DHT22;26811;53.160;8.202;2023-04-25T16:34:18;9.50;99.90
41060;DHT22;26811;53.160;8.202;2023-04-25T16:39:20;9.30;99.90
41060;DHT22;26811;53.160;8.202;2023-04-25T16:44:23;9.00;99.90
41060;DHT22;26811;53.160;8.202;2023-04-25T16:49:24;8.90;99.90
41060;DHT22;26811;53.160;8.202;2023-04-25T16:54:26;8.90;99.90
41060;DHT22;26811;53.160;8.202;2023-04-25T16:59:26;8.90;99.90
41060;DHT22;26811;53.160;8.202;2023-04-25T17:04:27;8.90;99.90
41060;DHT22;26811;53.160;8.202;2023-04-25T17:09:28;9.00;99.90
41060;DHT22;26811;53.160;8.202;2023-04-25T17:14:28;8.80;99.90
41060;DHT22;26811;53.160;8.202;2023-04-25T17:19:29;8.60;99.90
41060;DHT22;26811;53.160;8.202;2023-04-25T17:24:30;8.60;99.90
41060;DHT22;26811;53.160;8.202;2023-04-25T17:29:31;8.50;99.90
41060;DHT22;26811;53.160;8.202;2023-04-25T17:34:33;8.50;99.90
41060;DHT22;26811;53.160;8.202;2023-04-25T17:39:36;8.40;99.90
41060;DHT22;26811;53.160;8.202;2023-04-25T17:44:38;8.20;99.90
41060;DHT22;26811;53.160;8.202;2023-04-25T17:49:38;8.00;99.90
41060;DHT22;26811;53.160;8.202;2023-04-25T17:54:40;7.90;99.90
41060;DHT22;26811;53.160;8.202;2023-04-25T17:59:41;7.90;99.90
41060;DHT22;26811;53.160;8.202;2023-04-25T18:04:42;7.80;99.90
41060;DHT22;26811;53.160;8.202;2023-04-25T18:09:43;7.60;99.90
41060;DHT22;26811;53.160;8.202;2023-04-25T18:14:44;7.40;99.90
41060;DHT22;26811;53.160;8.202;2023-04-25T18:19:45;7.30;99.90
41060;DHT22;26811;53.160;8.202;2023-04-25T18:24:49;7.10;99.90
41060;DHT22;26811;53.160;8.202;2023-04-25T18:29:49;7.00;99.90
41060;DHT22;26811;53.160;8.202;2023-04-25T18:34:50;7.00;99.90
41060;DHT22;26811;53.160;8.202;2023-04-25T18:39:50;7.00;99.90
41060;DHT22;26811;53.160;8.202;2023-04-25T18:44:54;6.90;99.90
41060;DHT22;26811;53.160;8.202;2023-04-25T18:49:54;6.80;99.90
41060;DHT22;26811;53.160;8.202;2023-04-25T18:54:55;6.60;99.90
41060;DHT22;26811;53.160;8.202;2023-04-25T18:59:56;6.50;99.90
41060;DHT22;26811;53.160;8.202;2023-04-25T19:04:57;6.40;99.90
41060;DHT22;26811;53.160;8.202;2023-04-25T19:09:58;6.30;99.90
41060;DHT22;26811;53.160;8.202;2023-04-25T19:14:59;6.20;99.90
41060;DHT22;26811;53.160;8.202;2023-04-25T19:19:59;6.10;99.90
41060;DHT22;26811;53.160;8.202;2023-04-25T19:25:00;6.00;99.90
41060;DHT22;26811;53.160;8.202;2023-04-25T19:30:01;6.00;99.90
41060;DHT22;26811;53.160;8.202;2023-04-25T19:35:08;5.90;99.90
41060;DHT22;26811;53.160;8.202;2023-04-25T19:40:09;5.90;99.90
41060;DHT22;26811;53.160;8.202;2023-04-25T19:45:10;5.90;99.90
41060;DHT22;26811;53.160;8.202;2023-04-25T19:50:11;5.80;99.90
41060;DHT22;26811;53.160;8.202;2023-04-25T19:55:12;5.80;99.90
41060;DHT22;26811;53.160;8.202;2023-04-25T20:00:15;5.70;99.90
41060;DHT22;26811;53.160;8.202;2023-04-25T20:05:16;5.60;99.90
41060;DHT22;26811;53.160;8.202;2023-04-25T20:10:17;5.60;99.90
41060;DHT22;26811;53.160;8.202;2023-04-25T20:15:17;5.50;99.90
41060;DHT22;26811;53.160;8.202;2023-04-25T20:20:18;5.50;99.90
41060;DHT22;26811;53.160;8.202;2023-04-25T20:25:19;5.50;99.90
41060;DHT22;26811;53.160;8.202;2023-04-25T20:30:20;5.50;99.90
41060;DHT22;26811;53.160;8.202;2023-04-25T20:35:20;5.50;99.90
41060;DHT22;26811;53.160;8.202;2023-04-25T20:40:22;5.50;99.90
41060;DHT22;26811;53.160;8.202;2023-04-25T20:45:25;5.40;99.90
41060;DHT22;26811;53.160;8.202;2023-04-25T20:50:32;5.50;99.90
41060;DHT22;26811;53.160;8.202;2023-04-25T20:55:32;5.50;99.90
41060;DHT22;26811;53.160;8.202;2023-04-25T21:00:33;5.60;99.90
41060;DHT22;26811;53.160;8.202;2023-04-25T21:05:34;5.70;99.90
41060;DHT22;26811;53.160;8.202;2023-04-25T21:10:35;5.80;99.90
41060;DHT22;26811;53.160;8.202;2023-04-25T21:15:36;5.90;99.90
41060;DHT22;26811;53.160;8.202;2023-04-25T21:20:38;5.90;99.90
41060;DHT22;26811;53.160;8.202;2023-04-25T21:25:38;5.90;99.90
41060;DHT22;26811;53.160;8.202;2023-04-25T21:30:41;5.70;99.90
41060;DHT22;26811;53.160;8.202;2023-04-25T21:35:45;5.40;99.90
41060;DHT22;26811;53.160;8.202;2023-04-25T21:40:45;5.20;99.90
41060;DHT22;26811;53.160;8.202;2023-04-25T21:45:46;4.90;99.90
41060;DHT22;26811;53.160;8.202;2023-04-25T21:50:46;4.80;99.90
41060;DHT22;26811;53.160;8.202;2023-04-25T21:55:47;4.70;99.90
41060;DHT22;26811;53.160;8.202;2023-04-25T22:00:48;4.60;99.90
41060;DHT22;26811;53.160;8.202;2023-04-25T22:05:48;4.50;99.90
41060;DHT22;26811;53.160;8.202;2023-04-25T22:10:49;4.50;99.90
41060;DHT22;26811;53.160;8.202;2023-04-25T22:15:49;4.60;99.90
41060;DHT22;26811;53.160;8.202;2023-04-25T22:20:50;4.80;99.90
41060;DHT22;26811;53.160;8.202;2023-04-25T22:25:53;4.80;99.90
41060;DHT22;26811;53.160;8.202;2023-04-25T22:30:54;4.80;99.90
41060;DHT22;26811;53.160;8.202;2023-04-25T22:35:55;4.90;99.90
41060;DHT22;26811;53.160;8.202;2023-04-25T22:40:55;4.90;99.90
41060;DHT22;26811;53.160;8.202;2023-04-25T22:45:56;4.80;99.90
41060;DHT22;26811;53.160;8.202;2023-04-25T22:51:02;4.70;99.90
41060;DHT22;26811;53.160;8.202;2023-04-25T22:56:03;4.60;99.90
41060;DHT22;26811;53.160;8.202;2023-04-25T23:01:04;4.50;99.90
41060;DHT22;26811;53.160;8.202;2023-04-25T23:06:11;4.40;99.90
41060;DHT22;26811;53.160;8.202;2023-04-25T23:11:12;4.30;99.90
41060;DHT22;26811;53.160;8.202;2023-04-25T23:16:13;4.30;99.90
41060;DHT22;26811;53.160;8.202;2023-04-25T23:21:16;4.40;99.90
41060;DHT22;26811;53.160;8.202;2023-04-25T23:26:17;4.40;99.90
41060;DHT22;26811;53.160;8.202;2023-04-25T23:31:18;4.30;99.90
41060;DHT22;26811;53.160;8.202;2023-04-25T23:36:19;4.40;99.90
41060;DHT22;26811;53.160;8.202;2023-04-25T23:41:23;4.40;99.90
41060;DHT22;26811;53.160;8.202;2023-04-25T23:46:24;4.40;99.90
41060;DHT22;26811;53.160;8.202;2023-04-25T23:51:27;4.30;99.90
41060;DHT22;26811;53.160;8.202;2023-04-25T23:56:28;4.20;99.90
